Time;durP1;ratioP1;P1;durP2;ratioP2;P2;SDS_P1;SDS_P2;PMS_P1;PMS_P2;Temp;Humidity;BMP_temperature;BMP_pressure;BME280_temperature;BME280_humidity;BME280_pressure;Samples;Min_cycle;Max_cycle;Signal;HPM_P1;HPM_P2
2021/05/19 00:01:45;;;;;;;31.80;15.27;;;6.70;99.90;;;;;;4843680;29;20049;-93
2021/05/19 00:04:12;;;;;;;25.42;14.50;;;6.60;99.90;;;;;;4851621;29;20135;-96
2021/05/19 00:06:38;;;;;;;21.83;12.38;;;6.60;99.90;;;;;;4846127;29;20124;-94
2021/05/19 00:09:06;;;;;;;22.15;12.77;;;6.50;99.90;;;;;;4859460;29;20054;-93
2021/05/19 00:11:33;;;;;;;20.67;11.45;;;6.50;99.90;;;;;;4863044;29;20069;-92
2021/05/19 00:13:59;;;;;;;25.92;13.45;;;6.50;99.90;;;;;;4848589;29;20538;-95
2021/05/19 00:16:25;;;;;;;10.23;8.63;;;6.50;99.90;;;;;;4848312;29;20096;-93
2021/05/19 00:18:51;;;;;;;19.95;10.40;;;6.40;99.90;;;;;;4823356;29;20042;-93
2021/05/19 00:21:18;;;;;;;22.42;10.98;;;6.30;99.90;;;;;;4842942;29;20104;-92
2021/05/19 00:23:44;;;;;;;21.00;11.43;;;6.30;99.90;;;;;;4865689;29;20151;-94
2021/05/19 00:26:10;;;;;;;26.35;12.40;;;6.20;99.90;;;;;;4850096;29;20152;-93
2021/05/19 00:28:36;;;;;;;26.15;14.38;;;6.20;99.90;;;;;;4844526;29;20045;-95
2021/05/19 00:31:06;;;;;;;21.65;11.68;;;6.20;99.90;;;;;;4839714;29;20055;-95
2021/05/19 00:33:32;;;;;;;27.85;14.27;;;6.20;99.90;;;;;;4834406;29;20041;-95
2021/05/19 00:35:58;;;;;;;21.02;11.82;;;6.20;99.90;;;;;;4853619;29;20076;-94
2021/05/19 00:38:24;;;;;;;19.70;11.18;;;6.10;99.90;;;;;;4831825;29;20086;-93
2021/05/19 00:40:50;;;;;;;31.17;13.95;;;6.00;99.90;;;;;;4829769;29;20045;-94
2021/05/19 00:43:17;;;;;;;35.88;15.60;;;6.00;99.90;;;;;;4850691;29;20052;-95
2021/05/19 00:45:43;;;;;;;28.88;13.80;;;5.90;99.90;;;;;;4847363;29;20105;-96
2021/05/19 00:48:11;;;;;;;26.20;12.57;;;5.90;99.90;;;;;;4880015;29;20053;-95
2021/05/19 00:50:39;;;;;;;23.05;12.13;;;5.80;99.90;;;;;;4851945;29;20059;-96
2021/05/19 00:53:05;;;;;;;20.42;13.27;;;5.80;99.90;;;;;;4844043;29;20053;-96
2021/05/19 00:55:31;;;;;;;30.08;14.10;;;5.80;99.90;;;;;;4845161;29;20048;-96
2021/05/19 00:57:57;;;;;;;25.58;13.57;;;5.70;99.90;;;;;;4855738;29;20128;-96
2021/05/19 01:00:25;;;;;;;33.63;15.65;;;5.70;99.90;;;;;;4842423;29;20417;-92
2021/05/19 01:02:51;;;;;;;27.45;12.13;;;5.60;99.90;;;;;;4838704;29;20045;-95
2021/05/19 01:06:07;;;;;;;23.13;11.10;;;5.70;99.90;;;;;;4860001;29;20095;-93
2021/05/19 01:10:52;;;;;;;350.80;18.63;;;5.70;99.90;;;;;;4886541;29;20044;-94
2021/05/19 01:13:19;;;;;;;551.15;14.70;;;5.60;99.90;;;;;;4841821;29;20053;-94
2021/05/19 01:15:45;;;;;;;403.17;12.65;;;5.50;99.90;;;;;;4817411;29;20062;-95
2021/05/19 01:18:11;;;;;;;550.42;16.23;;;5.50;99.90;;;;;;4901366;24;20147;-96
2021/05/19 01:20:37;;;;;;;506.92;11.75;;;5.50;99.90;;;;;;4843517;29;20145;-95
2021/05/19 01:23:05;;;;;;;751.58;27.88;;;5.50;99.90;;;;;;4847025;29;20044;-95
2021/05/19 01:25:34;;;;;;;;;;;5.50;99.90;;;;;;4867599;29;20046;-96
2021/05/19 01:28:03;;;;;;;557.30;14.10;;;5.40;99.90;;;;;;4874174;29;19936;-93
2021/05/19 01:30:31;;;;;;;264.17;6.30;;;5.40;99.90;;;;;;4870980;29;20053;-94
2021/05/19 01:32:58;;;;;;;492.33;13.65;;;5.40;99.90;;;;;;4866050;29;20046;-92
2021/05/19 01:35:24;;;;;;;542.20;15.38;;;5.50;99.90;;;;;;4846994;29;20040;-92
2021/05/19 01:37:50;;;;;;;394.90;7.50;;;5.40;99.90;;;;;;4848904;29;20202;-94
2021/05/19 01:40:19;;;;;;;562.85;15.55;;;5.40;99.90;;;;;;4879793;29;20045;-93
2021/05/19 01:42:47;;;;;;;620.30;16.63;;;5.40;99.90;;;;;;4879452;29;20494;-92
2021/05/19 01:45:14;;;;;;;531.15;15.48;;;5.30;99.90;;;;;;4878232;29;20052;-92
2021/05/19 01:47:47;;;;;;;611.42;20.52;;;5.30;99.90;;;;;;4883975;29;20049;-92
2021/05/19 01:50:18;;;;;;;251.13;5.40;;;5.30;99.90;;;;;;4861253;29;20048;-93
2021/05/19 01:52:44;;;;;;;265.98;7.03;;;5.30;99.90;;;;;;4876720;29;20124;-92
2021/05/19 01:55:13;;;;;;;88.45;4.45;;;5.20;99.90;;;;;;4860054;29;20072;-92
2021/05/19 01:57:43;;;;;;;220.50;8.15;;;5.10;99.90;;;;;;4876261;29;20128;-91
2021/05/19 02:00:11;;;;;;;53.63;5.90;;;5.10;99.90;;;;;;4875000;29;20037;-93
2021/05/19 02:02:37;;;;;;;68.80;5.53;;;5.10;99.90;;;;;;4845319;29;20312;-93
2021/05/19 02:05:04;;;;;;;69.68;6.43;;;5.10;99.90;;;;;;4847008;29;20049;-94
2021/05/19 02:07:30;;;;;;;108.95;6.75;;;5.20;99.90;;;;;;4878125;29;20049;-92
2021/05/19 02:09:55;;;;;;;120.18;6.22;;;5.30;99.90;;;;;;4860703;29;20473;-91
2021/05/19 02:12:21;;;;;;;188.35;8.35;;;5.30;99.90;;;;;;4844537;29;20462;-92
2021/05/19 02:14:47;;;;;;;85.60;7.30;;;5.30;99.90;;;;;;4846396;29;20045;-93
2021/05/19 02:17:13;;;;;;;38.47;5.75;;;5.40;99.90;;;;;;4855261;29;20083;-93
2021/05/19 02:19:39;;;;;;;53.42;6.57;;;5.40;99.90;;;;;;4845444;29;20173;-93
2021/05/19 02:22:07;;;;;;;38.13;6.90;;;5.40;99.90;;;;;;4850310;29;20072;-93
2021/05/19 02:24:33;;;;;;;17.27;6.85;;;5.40;99.90;;;;;;4855653;29;20129;-90
2021/05/19 02:27:00;;;;;;;87.35;9.27;;;5.40;99.90;;;;;;4849434;29;20056;-93
2021/05/19 02:29:25;;;;;;;166.23;13.00;;;5.40;99.90;;;;;;4874106;29;20052;-93
2021/05/19 02:31:52;;;;;;;197.38;14.70;;;5.30;99.90;;;;;;4869919;29;20110;-93
2021/05/19 02:34:18;;;;;;;202.30;15.70;;;5.30;99.90;;;;;;4839740;29;20041;-92
2021/05/19 02:36:44;;;;;;;161.15;13.48;;;5.30;99.90;;;;;;4845540;29;20482;-92
2021/05/19 02:39:12;;;;;;;207.50;14.80;;;5.30;99.90;;;;;;4876693;29;20053;-92
2021/05/19 02:41:40;;;;;;;407.90;16.63;;;5.20;99.90;;;;;;4889292;29;20061;-93
2021/05/19 02:44:07;;;;;;;684.53;21.70;;;5.30;99.90;;;;;;4870150;29;20060;-93
2021/05/19 02:46:35;;;;;;;466.27;16.58;;;5.30;99.90;;;;;;4881412;29;20041;-93
2021/05/19 02:49:01;;;;;;;134.90;12.57;;;5.30;99.90;;;;;;4890857;29;20112;-94
2021/05/19 02:51:37;;;;;;;270.60;19.00;;;5.20;99.90;;;;;;4874567;29;20123;-94
2021/05/19 02:54:05;;;;;;;214.90;14.57;;;5.20;99.90;;;;;;4870690;29;20057;-94
2021/05/19 02:56:31;;;;;;;119.78;11.20;;;5.20;99.90;;;;;;4851268;29;20149;-92
2021/05/19 02:58:57;;;;;;;524.35;28.13;;;5.20;99.90;;;;;;4859265;29;20052;-93
2021/05/19 03:01:23;;;;;;;490.65;25.05;;;5.20;99.90;;;;;;4848182;29;20101;-93
2021/05/19 03:03:50;;;;;;;259.55;12.25;;;5.10;99.90;;;;;;4850955;29;20060;-92
2021/05/19 03:06:15;;;;;;;297.63;11.05;;;5.10;99.90;;;;;;4857595;29;20044;-92
2021/05/19 03:08:43;;;;;;;246.63;18.38;;;5.10;99.90;;;;;;4855369;29;20045;-93
2021/05/19 03:11:09;;;;;;;177.30;14.55;;;5.00;99.90;;;;;;4845662;29;20063;-96
2021/05/19 03:13:35;;;;;;;33.20;13.18;;;5.10;99.90;;;;;;4861324;29;20157;-95
2021/05/19 03:16:01;;;;;;;19.67;9.50;;;5.10;99.90;;;;;;4832524;29;20089;-93
2021/05/19 03:18:30;;;;;;;16.70;10.02;;;5.10;99.90;;;;;;4842395;29;20061;-95
2021/05/19 03:21:00;;;;;;;23.27;12.00;;;5.10;99.90;;;;;;4857769;29;20053;-92
2021/05/19 03:23:26;;;;;;;17.55;11.27;;;5.20;99.90;;;;;;4838455;29;20049;-94
2021/05/19 03:25:57;;;;;;;19.17;12.27;;;5.30;99.90;;;;;;4869090;29;20139;-95
2021/05/19 03:28:24;;;;;;;29.83;15.27;;;5.40;99.90;;;;;;4876481;29;20128;-95
2021/05/19 03:30:51;;;;;;;20.10;12.75;;;5.50;99.90;;;;;;4847645;29;20053;-94
2021/05/19 03:33:18;;;;;;;25.15;13.65;;;5.50;99.90;;;;;;4832663;29;20498;-94
2021/05/19 03:35:48;;;;;;;29.02;15.05;;;5.60;99.90;;;;;;4875351;29;20067;-94
2021/05/19 03:38:14;;;;;;;34.13;17.80;;;5.70;99.90;;;;;;4849218;29;20049;-94
2021/05/19 03:40:40;;;;;;;39.00;18.05;;;5.80;99.90;;;;;;4870291;29;20057;-96
2021/05/19 03:43:06;;;;;;;45.88;19.02;;;5.90;99.90;;;;;;4844155;29;20064;-95
2021/05/19 03:45:33;;;;;;;43.25;20.27;;;6.00;99.90;;;;;;4848250;29;20044;-94
2021/05/19 03:47:59;;;;;;;48.58;18.88;;;6.00;99.90;;;;;;4817612;29;20068;-94
2021/05/19 03:50:29;;;;;;;48.80;22.42;;;6.00;99.90;;;;;;4857683;29;20049;-94
2021/05/19 03:52:58;;;;;;;46.08;21.25;;;6.10;99.90;;;;;;4860372;29;20073;-96
2021/05/19 03:55:24;;;;;;;49.35;22.55;;;6.20;99.90;;;;;;4867318;29;20097;-95
2021/05/19 03:57:50;;;;;;;60.08;24.77;;;6.30;99.90;;;;;;4832518;29;20053;-94
2021/05/19 04:00:20;;;;;;;54.05;24.20;;;6.40;99.90;;;;;;4853979;29;20041;-94
2021/05/19 04:02:49;;;;;;;37.65;20.23;;;6.50;99.90;;;;;;4856461;29;20041;-92
2021/05/19 04:05:21;;;;;;;36.50;17.88;;;6.50;99.90;;;;;;4877542;29;20128;-95
2021/05/19 04:07:50;;;;;;;30.10;15.25;;;6.50;99.90;;;;;;4869148;29;20100;-91
2021/05/19 04:10:17;;;;;;;35.13;17.80;;;6.60;99.90;;;;;;4873799;29;20144;-95
2021/05/19 04:12:43;;;;;;;34.38;17.30;;;6.60;99.90;;;;;;4866473;29;20627;-96
2021/05/19 04:15:10;;;;;;;44.58;18.63;;;6.70;99.90;;;;;;4866312;29;20174;-96
2021/05/19 04:17:36;;;;;;;39.67;19.05;;;6.80;99.90;;;;;;4860118;29;20073;-95
2021/05/19 04:20:03;;;;;;;40.53;18.95;;;6.80;99.90;;;;;;4846557;29;20041;-96
2021/05/19 04:22:29;;;;;;;34.00;17.48;;;6.90;99.90;;;;;;4879550;29;20041;-95
2021/05/19 04:24:55;;;;;;;36.08;15.75;;;6.90;99.90;;;;;;4847084;29;20056;-95
2021/05/19 04:27:21;;;;;;;41.88;18.48;;;7.00;99.90;;;;;;4832944;29;20140;-95
2021/05/19 04:29:47;;;;;;;34.42;16.70;;;7.00;99.90;;;;;;4855608;29;20037;-92
2021/05/19 04:32:13;;;;;;;21.05;11.52;;;7.10;99.90;;;;;;4862943;29;20501;-93
2021/05/19 04:34:39;;;;;;;27.75;15.07;;;7.10;99.90;;;;;;4847306;29;20045;-93
2021/05/19 04:37:06;;;;;;;32.30;14.90;;;7.20;99.90;;;;;;4862376;29;20057;-93
2021/05/19 04:39:32;;;;;;;20.23;12.32;;;7.30;99.90;;;;;;4847763;29;20045;-95
2021/05/19 04:41:58;;;;;;;28.13;14.32;;;7.30;99.90;;;;;;4847633;29;20049;-96
2021/05/19 04:44:24;;;;;;;25.55;13.30;;;7.60;99.90;;;;;;4847816;29;20100;-95
2021/05/19 04:46:50;;;;;;;31.75;17.95;;;7.40;99.90;;;;;;4862377;29;20472;-93
2021/05/19 04:49:16;;;;;;;54.50;20.02;;;7.50;99.90;;;;;;4862621;29;20049;-92
2021/05/19 04:51:42;;;;;;;42.22;20.02;;;7.70;99.90;;;;;;4816154;29;20410;-92
2021/05/19 04:54:08;;;;;;;41.60;19.88;;;7.70;99.90;;;;;;4869582;29;20037;-92
2021/05/19 04:56:35;;;;;;;45.40;19.45;;;7.80;99.90;;;;;;4863411;29;20459;-93
2021/05/19 04:59:01;;;;;;;36.33;17.63;;;7.90;99.90;;;;;;4847191;29;20052;-92
2021/05/19 05:01:27;;;;;;;41.25;20.50;;;7.90;99.90;;;;;;4845006;29;20045;-92
2021/05/19 05:03:53;;;;;;;22.77;13.15;;;8.00;99.90;;;;;;4862927;29;20073;-94
2021/05/19 05:06:19;;;;;;;31.77;16.08;;;8.10;99.90;;;;;;4836213;29;20073;-94
2021/05/19 05:08:45;;;;;;;36.47;17.55;;;8.20;99.90;;;;;;4842000;29;20410;-93
2021/05/19 05:11:10;;;;;;;34.30;16.73;;;8.20;99.90;;;;;;4830934;29;20044;-94
2021/05/19 05:13:36;;;;;;;27.52;15.15;;;8.20;99.90;;;;;;4861806;29;20830;-94
2021/05/19 05:16:02;;;;;;;30.67;13.65;;;8.30;99.90;;;;;;4860907;29;20048;-92
2021/05/19 05:18:40;;;;;;;29.65;14.85;;;8.40;99.90;;;;;;4860820;29;20057;-91
2021/05/19 05:21:07;;;;;;;24.42;12.95;;;8.50;99.90;;;;;;4844516;29;20211;-92
2021/05/19 05:23:34;;;;;;;26.85;14.50;;;8.50;99.90;;;;;;4877174;29;20049;-91
2021/05/19 05:26:00;;;;;;;23.75;12.73;;;8.60;99.90;;;;;;4854645;29;20051;-90
2021/05/19 05:28:28;;;;;;;17.95;12.15;;;8.60;99.90;;;;;;4861441;29;20045;-91
2021/05/19 05:30:55;;;;;;;25.33;13.10;;;8.70;99.90;;;;;;4868881;29;20055;-91
2021/05/19 05:33:21;;;;;;;23.98;12.57;;;8.80;99.90;;;;;;4858374;29;20049;-93
2021/05/19 05:35:47;;;;;;;29.67;13.25;;;8.90;99.90;;;;;;4851994;29;20178;-93
2021/05/19 05:38:13;;;;;;;22.83;12.82;;;8.90;99.90;;;;;;4831853;29;20443;-94
2021/05/19 05:40:39;;;;;;;24.67;12.80;;;9.00;99.90;;;;;;4868338;29;20073;-92
2021/05/19 05:43:05;;;;;;;15.27;10.75;;;9.00;99.90;;;;;;4827004;29;20060;-92
2021/05/19 05:45:31;;;;;;;18.00;11.35;;;9.00;99.90;;;;;;4842547;29;20045;-93
2021/05/19 05:47:57;;;;;;;19.13;10.23;;;9.10;99.90;;;;;;4871393;29;20114;-90
2021/05/19 05:50:25;;;;;;;20.77;12.05;;;9.20;99.90;;;;;;4883167;29;20047;-93
2021/05/19 05:52:51;;;;;;;17.63;11.25;;;9.30;99.90;;;;;;4883282;29;20490;-95
2021/05/19 05:55:20;;;;;;;18.90;12.63;;;9.40;99.90;;;;;;4840207;29;20118;-92
2021/05/19 05:57:50;;;;;;;18.08;13.18;;;9.40;99.90;;;;;;4853299;29;20124;-94
2021/05/19 06:00:16;;;;;;;18.83;13.20;;;9.50;99.90;;;;;;4846004;29;20119;-94
2021/05/19 06:02:43;;;;;;;21.20;13.02;;;9.60;99.90;;;;;;4846343;29;20881;-94
2021/05/19 06:05:11;;;;;;;22.52;11.45;;;9.60;99.90;;;;;;4848305;29;20056;-94
2021/05/19 06:07:37;;;;;;;17.92;11.60;;;9.70;99.90;;;;;;4846968;29;20100;-95
2021/05/19 06:10:04;;;;;;;15.88;11.48;;;9.80;99.90;;;;;;4831482;29;20136;-93
2021/05/19 06:12:30;;;;;;;14.40;10.05;;;9.90;99.90;;;;;;4856017;29;20076;-92
2021/05/19 06:14:56;;;;;;;19.55;10.05;;;10.00;99.90;;;;;;4871898;29;20522;-93
2021/05/19 06:17:22;;;;;;;18.70;9.73;;;10.10;99.90;;;;;;4847033;29;20125;-92
2021/05/19 06:19:47;;;;;;;16.80;9.40;;;10.30;99.90;;;;;;4876672;29;20037;-95
2021/05/19 06:22:13;;;;;;;14.48;8.82;;;10.40;99.90;;;;;;4859823;29;20060;-91
2021/05/19 06:24:39;;;;;;;17.52;10.00;;;10.50;99.90;;;;;;4860965;29;20041;-93
2021/05/19 06:27:05;;;;;;;15.32;8.68;;;10.60;99.90;;;;;;4829659;29;20072;-91
2021/05/19 06:29:32;;;;;;;16.55;9.65;;;10.60;99.90;;;;;;4859883;29;20056;-95
2021/05/19 06:31:59;;;;;;;15.95;9.68;;;10.60;99.90;;;;;;4839746;29;20406;-93
2021/05/19 06:34:25;;;;;;;12.27;10.10;;;10.60;99.90;;;;;;4845575;29;20047;-94
2021/05/19 06:36:51;;;;;;;16.02;10.48;;;10.60;99.90;;;;;;4846185;29;20049;-94
2021/05/19 06:39:22;;;;;;;14.15;9.40;;;10.60;99.90;;;;;;4837826;29;20057;-93
2021/05/19 06:41:49;;;;;;;20.13;10.35;;;10.60;99.90;;;;;;4844950;29;20037;-96
2021/05/19 06:44:16;;;;;;;14.77;9.05;;;10.70;99.90;;;;;;4853718;29;20040;-93
2021/05/19 06:46:42;;;;;;;15.73;9.23;;;10.80;99.90;;;;;;4874442;29;20037;-92
2021/05/19 06:49:08;;;;;;;11.13;8.65;;;10.80;99.90;;;;;;4855798;29;20486;-94
2021/05/19 06:51:37;;;;;;;13.70;9.48;;;10.80;99.90;;;;;;4832622;29;20063;-93
2021/05/19 06:54:04;;;;;;;18.05;9.52;;;10.80;99.90;;;;;;4828180;29;20542;-93
2021/05/19 06:56:31;;;;;;;12.23;9.88;;;10.90;99.90;;;;;;4844931;29;20052;-95
2021/05/19 06:58:56;;;;;;;11.85;9.10;;;10.90;99.90;;;;;;4845489;29;20045;-95
2021/05/19 07:01:22;;;;;;;15.05;9.75;;;11.00;99.90;;;;;;4844933;29;20041;-95
2021/05/19 07:03:49;;;;;;;16.70;9.13;;;11.00;99.90;;;;;;4845622;29;20045;-93
2021/05/19 07:06:19;;;;;;;20.00;8.98;;;11.10;99.90;;;;;;4859856;29;20053;-94
2021/05/19 07:08:46;;;;;;;13.95;9.70;;;11.20;99.90;;;;;;4847579;29;20545;-92
2021/05/19 07:11:12;;;;;;;22.25;9.75;;;11.30;99.90;;;;;;4835389;29;20053;-94
2021/05/19 07:13:39;;;;;;;19.85;10.23;;;11.40;99.90;;;;;;4833315;29;20141;-92
2021/05/19 07:16:05;;;;;;;18.83;9.73;;;11.50;99.90;;;;;;4849970;29;20045;-91
2021/05/19 07:18:33;;;;;;;13.93;8.75;;;11.50;99.90;;;;;;4881957;29;20124;-96
2021/05/19 07:20:59;;;;;;;12.85;8.73;;;11.60;99.90;;;;;;4841090;29;20627;-95
2021/05/19 07:23:25;;;;;;;13.50;8.02;;;11.70;99.90;;;;;;4841937;29;20052;-95
2021/05/19 07:25:51;;;;;;;13.70;8.60;;;11.70;99.90;;;;;;4848187;29;20057;-95
2021/05/19 07:28:17;;;;;;;22.48;8.85;;;11.80;99.90;;;;;;4867852;29;20065;-96
2021/05/19 07:30:47;;;;;;;14.05;8.60;;;11.90;99.90;;;;;;4849122;29;20065;-95
2021/05/19 07:33:17;;;;;;;14.13;8.50;;;11.90;99.90;;;;;;4876966;29;20055;-95
2021/05/19 07:35:45;;;;;;;;;;;12.00;99.90;;;;;;4878755;29;20049;-96
2021/05/19 07:38:13;;;;;;;13.40;8.77;;;12.00;99.90;;;;;;4867174;29;19955;-94
2021/05/19 07:40:40;;;;;;;16.88;8.68;;;12.10;99.90;;;;;;4869377;29;20037;-95
2021/05/19 07:43:06;;;;;;;13.63;9.10;;;12.30;99.90;;;;;;4872872;29;20711;-94
2021/05/19 07:45:33;;;;;;;16.45;8.63;;;12.30;99.90;;;;;;4876505;29;20110;-96
2021/05/19 07:48:02;;;;;;;17.30;8.50;;;12.40;99.90;;;;;;4879575;29;20049;-96
2021/05/19 07:50:31;;;;;;;14.88;8.75;;;12.50;99.90;;;;;;4877642;29;20057;-96
2021/05/19 07:52:57;;;;;;;16.95;9.07;;;12.50;99.90;;;;;;4879895;29;20086;-95
2021/05/19 07:55:29;;;;;;;14.77;9.15;;;12.30;99.90;;;;;;4879075;29;20037;-95
2021/05/19 08:02:48;;;;;;;13.32;9.48;;;12.90;99.90;;;;;;4879556;29;20563;-96
2021/05/19 08:05:14;;;;;;;21.05;9.75;;;13.00;99.90;;;;;;4856597;29;20061;-94
2021/05/19 08:07:40;;;;;;;19.63;10.13;;;13.10;99.90;;;;;;4891880;29;20049;-96
2021/05/19 08:10:10;;;;;;;15.15;9.50;;;13.20;99.90;;;;;;4873286;29;20048;-95
2021/05/19 08:12:36;;;;;;;19.30;10.40;;;13.30;99.90;;;;;;4862037;29;20060;-96
2021/05/19 08:15:03;;;;;;;14.20;9.57;;;13.30;99.90;;;;;;4868911;29;20150;-96
2021/05/19 08:17:29;;;;;;;24.95;13.82;;;13.30;99.90;;;;;;4850390;29;20510;-96
2021/05/19 08:19:55;;;;;;;20.55;9.93;;;13.20;99.90;;;;;;4837326;29;20055;-96
2021/05/19 08:22:20;;;;;;;22.30;10.60;;;13.30;99.90;;;;;;4883227;29;20052;-96
2021/05/19 08:24:46;;;;;;;20.85;11.15;;;13.30;99.90;;;;;;4883457;29;20045;-96
2021/05/19 08:27:12;;;;;;;18.55;10.40;;;13.20;99.90;;;;;;4864860;29;20443;-96
2021/05/19 08:29:39;;;;;;;15.68;10.18;;;13.20;99.90;;;;;;4864102;29;20033;-96
2021/05/19 08:32:06;;;;;;;16.95;9.88;;;13.30;99.90;;;;;;4867613;29;20061;-96
2021/05/19 08:34:34;;;;;;;17.02;10.40;;;13.30;99.90;;;;;;4882434;29;20068;-96
2021/05/19 08:37:00;;;;;;;15.60;10.07;;;13.40;99.90;;;;;;4849264;29;20041;-96
2021/05/19 08:39:26;;;;;;;18.30;9.68;;;13.40;99.90;;;;;;4850802;29;20105;-94
2021/05/19 08:41:52;;;;;;;18.90;11.20;;;13.40;99.90;;;;;;4866855;29;20624;-96
2021/05/19 08:44:19;;;;;;;15.90;10.45;;;13.60;99.90;;;;;;4863627;29;20045;-93
2021/05/19 08:46:48;;;;;;;17.23;9.32;;;13.80;99.90;;;;;;4865061;29;20057;-96
2021/05/19 08:49:15;;;;;;;13.30;9.43;;;14.00;99.90;;;;;;4860077;29;20113;-93
2021/05/19 08:51:42;;;;;;;15.07;9.85;;;14.00;99.90;;;;;;4866951;29;20250;-92
2021/05/19 08:54:09;;;;;;;19.20;10.40;;;14.10;99.90;;;;;;4878159;29;20063;-96
2021/05/19 08:56:44;;;;;;;15.02;9.55;;;14.20;99.90;;;;;;4882436;29;20033;-92
2021/05/19 08:59:10;;;;;;;15.43;8.20;;;14.40;99.90;;;;;;4869559;29;20102;-91
2021/05/19 09:01:40;;;;;;;15.50;8.30;;;14.50;99.90;;;;;;4881522;29;20052;-95
2021/05/19 09:04:11;;;;;;;17.42;8.85;;;14.60;99.90;;;;;;4896267;29;20569;-94
2021/05/19 09:06:37;;;;;;;15.48;7.88;;;14.80;99.90;;;;;;4855471;29;20132;-95
2021/05/19 09:09:27;;;;;;;12.32;8.18;;;14.90;99.90;;;;;;4858800;29;20104;-93
2021/05/19 09:11:59;;;;;;;12.48;7.80;;;14.80;99.90;;;;;;4909609;23;20101;-96
2021/05/19 09:14:29;;;;;;;13.20;7.20;;;15.00;99.90;;;;;;4891914;29;20039;-91
2021/05/19 09:17:16;;;;;;;15.93;8.30;;;15.10;99.90;;;;;;4881696;29;20076;-93
2021/05/19 09:19:43;;;;;;;10.13;7.43;;;15.00;99.90;;;;;;4866014;29;20052;-91
2021/05/19 09:22:28;;;;;;;13.97;7.67;;;15.00;99.90;;;;;;5249328;23;20061;-91
2021/05/19 09:24:54;;;;;;;9.95;7.47;;;15.20;99.90;;;;;;5089578;23;20061;-96
2021/05/19 09:29:56;;;;;;;10.50;6.90;;;15.50;99.90;;;;;;5920863;23;20034;-96
2021/05/19 09:32:22;;;;;;;11.50;7.25;;;15.60;99.90;;;;;;4912824;23;20061;-91
2021/05/19 09:34:53;;;;;;;15.75;8.32;;;15.60;99.90;;;;;;4965701;24;20084;-95
2021/05/19 09:37:33;;;;;;;15.40;7.85;;;15.90;99.90;;;;;;4909968;29;20052;-94
2021/05/19 09:40:10;;;;;;;12.32;8.13;;;16.00;99.90;;;;;;5740754;23;20031;-96
2021/05/19 09:42:36;;;;;;;16.48;8.80;;;16.20;99.90;;;;;;4860586;29;20037;-96
2021/05/19 09:45:24;;;;;;;16.08;8.35;;;16.20;99.90;;;;;;4854385;29;20053;-91
2021/05/19 09:47:53;;;;;;;12.68;7.88;;;16.50;99.90;;;;;;4851074;29;20190;-96
2021/05/19 09:50:21;;;;;;;10.73;7.28;;;16.60;99.90;;;;;;4871685;29;20038;-96
2021/05/19 09:53:14;;;;;;;13.43;6.30;;;16.80;99.90;;;;;;4872961;29;20119;-96
2021/05/19 09:56:03;;;;;;;13.80;7.05;;;16.90;99.90;;;;;;4851686;29;20491;-92
2021/05/19 09:58:30;;;;;;;9.65;6.63;;;16.90;99.90;;;;;;4841510;29;20592;-92
2021/05/19 10:00:58;;;;;;;10.48;6.78;;;17.00;99.90;;;;;;4854511;29;20048;-95
2021/05/19 10:03:24;;;;;;;12.60;6.20;;;17.20;99.90;;;;;;4843403;29;20445;-96
2021/05/19 10:06:01;;;;;;;13.02;6.18;;;17.50;99.90;;;;;;4848108;29;20037;-96
2021/05/19 10:08:27;;;;;;;9.40;6.03;;;17.80;99.90;;;;;;4852998;29;20041;-93
2021/05/19 10:11:04;;;;;;;8.10;5.35;;;18.00;99.90;;;;;;4860849;29;20104;-95
2021/05/19 10:13:34;;;;;;;8.23;5.80;;;18.00;99.90;;;;;;4881635;29;20049;-91
2021/05/19 10:16:06;;;;;;;11.35;6.38;;;17.70;99.90;;;;;;4869614;29;20498;-96
2021/05/19 10:18:39;;;;;;;11.20;5.45;;;17.50;99.90;;;;;;4859330;29;20045;-92
2021/05/19 10:21:07;;;;;;;10.00;5.13;;;17.50;99.90;;;;;;4863011;29;20053;-94
2021/05/19 10:23:38;;;;;;;9.52;4.93;;;17.40;99.90;;;;;;4887754;23;20148;-91
2021/05/19 10:26:09;;;;;;;11.30;6.03;;;17.20;99.90;;;;;;4846007;29;20049;-94
2021/05/19 10:28:46;;;;;;;11.73;6.75;;;17.00;99.90;;;;;;4812199;29;20060;-94
2021/05/19 10:31:30;;;;;;;11.60;6.57;;;16.90;99.90;;;;;;4841994;29;20402;-96
2021/05/19 10:34:01;;;;;;;7.38;5.60;;;17.00;99.90;;;;;;4833487;29;20046;-96
2021/05/19 10:36:27;;;;;;;13.30;6.35;;;17.00;99.90;;;;;;4845054;29;20049;-96
2021/05/19 10:39:11;;;;;;;7.88;5.25;;;16.80;99.90;;;;;;4866968;29;20052;-96
2021/05/19 10:41:54;;;;;;;9.77;5.32;;;16.70;99.90;;;;;;4883506;23;20211;-92
2021/05/19 10:44:29;;;;;;;6.93;5.20;;;16.80;99.90;;;;;;4854838;29;20146;-96
2021/05/19 10:47:13;;;;;;;12.75;6.20;;;17.10;99.90;;;;;;4861684;29;20093;-94
2021/05/19 10:49:52;;;;;;;7.90;5.45;;;17.20;99.90;;;;;;4841803;29;20498;-96
2021/05/19 10:57:54;;;;;;;12.27;5.80;;;17.80;99.90;;;;;;4866673;29;20046;-95
2021/05/19 11:00:25;;;;;;;11.00;6.20;;;17.80;99.90;;;;;;4854330;29;20038;-96
2021/05/19 11:05:32;;;;;;;11.25;5.95;;;17.80;99.90;;;;;;4845360;29;20157;-96
2021/05/19 11:08:13;;;;;;;11.00;6.15;;;18.10;99.90;;;;;;4846904;29;20048;-94
2021/05/19 11:10:48;;;;;;;5.90;5.30;;;18.10;99.90;;;;;;4867850;29;20061;-91
2021/05/19 11:13:15;;;;;;;9.25;7.55;;;18.00;99.90;;;;;;4876625;29;20105;-92
2021/05/19 11:18:46;;;;;;;6.88;2.75;;;16.50;99.90;;;;;;4867937;29;20049;-96
2021/05/19 11:21:17;;;;;;;7.07;2.40;;;15.80;99.90;;;;;;4865165;29;20041;-96
2021/05/19 11:24:09;;;;;;;6.55;2.20;;;15.40;99.90;;;;;;4834519;29;20106;-96
2021/05/19 11:26:43;;;;;;;12.32;2.75;;;15.40;99.90;;;;;;4861390;29;20083;-94
2021/05/19 11:29:11;;;;;;;18.00;3.47;;;15.30;99.90;;;;;;4889921;24;20057;-92
2021/05/19 11:31:44;;;;;;;15.60;4.03;;;14.90;99.90;;;;;;4882635;23;20107;-96
2021/05/19 11:34:12;;;;;;;11.45;4.00;;;14.90;99.90;;;;;;4866752;29;20168;-96
2021/05/19 11:36:46;;;;;;;9.40;3.50;;;13.60;99.90;;;;;;4844410;29;20045;-92
2021/05/19 11:39:31;;;;;;;8.15;3.10;;;13.20;99.90;;;;;;4843972;29;20050;-93
2021/05/19 11:42:14;;;;;;;8.02;4.07;;;12.90;99.90;;;;;;4843134;29;20048;-94
2021/05/19 11:44:41;;;;;;;8.70;3.90;;;12.80;99.90;;;;;;4842754;29;20109;-90
2021/05/19 11:47:08;;;;;;;5.13;3.00;;;12.70;99.90;;;;;;4843364;29;20069;-93
2021/05/19 11:49:34;;;;;;;4.90;3.50;;;12.70;99.90;;;;;;4827899;29;20045;-92
2021/05/19 11:52:01;;;;;;;3.22;2.92;;;12.80;99.90;;;;;;4827466;29;20041;-92
2021/05/19 11:54:27;;;;;;;6.28;3.10;;;12.80;99.90;;;;;;4841945;29;20097;-91
2021/05/19 11:56:55;;;;;;;2.83;2.60;;;12.90;99.90;;;;;;4817207;29;20057;-90
2021/05/19 11:59:28;;;;;;;4.80;2.20;;;13.00;99.90;;;;;;4859668;29;20050;-92
2021/05/19 12:02:10;;;;;;;4.70;2.42;;;12.90;99.90;;;;;;4840805;29;20041;-90
2021/05/19 12:04:41;;;;;;;1.52;1.40;;;13.00;99.90;;;;;;4857912;29;20406;-91
2021/05/19 12:07:08;;;;;;;1.40;1.30;;;12.90;99.90;;;;;;4841405;29;20057;-91
2021/05/19 12:09:41;;;;;;;6.82;1.80;;;12.80;99.90;;;;;;4841550;29;20075;-90
2021/05/19 12:12:17;;;;;;;1.50;1.40;;;12.80;99.90;;;;;;4841287;29;20045;-91
2021/05/19 12:14:54;;;;;;;1.90;1.80;;;12.70;99.90;;;;;;4847426;29;20097;-90
2021/05/19 12:17:27;;;;;;;1.75;1.50;;;12.80;99.90;;;;;;4842659;29;20116;-91
2021/05/19 12:19:53;;;;;;;1.50;1.40;;;12.90;99.90;;;;;;4858456;29;20042;-91
2021/05/19 12:22:22;;;;;;;1.55;1.48;;;12.80;99.90;;;;;;4842571;29;20053;-91
2021/05/19 12:24:49;;;;;;;3.50;1.70;;;12.90;99.90;;;;;;4853831;29;20078;-89
2021/05/19 12:27:21;;;;;;;5.28;2.45;;;12.90;99.90;;;;;;4857191;29;20049;-90
2021/05/19 12:29:52;;;;;;;2.42;2.22;;;13.00;99.90;;;;;;4858896;29;20045;-88
2021/05/19 12:32:23;;;;;;;3.03;2.72;;;13.20;99.90;;;;;;4827119;29;20171;-91
2021/05/19 12:35:02;;;;;;;3.47;2.90;;;13.10;99.90;;;;;;4858121;29;20084;-90
2021/05/19 12:37:37;;;;;;;3.65;3.35;;;13.20;99.90;;;;;;4841035;29;20045;-91
2021/05/19 12:40:05;;;;;;;3.42;3.20;;;13.20;99.90;;;;;;4849852;29;20045;-91
2021/05/19 12:42:42;;;;;;;3.47;3.20;;;13.20;99.90;;;;;;4835186;29;20112;-91
2021/05/19 12:45:10;;;;;;;5.32;3.30;;;13.30;99.90;;;;;;4838268;29;20034;-91
2021/05/19 12:47:36;;;;;;;6.00;2.75;;;13.60;99.90;;;;;;4827076;29;20105;-91
2021/05/19 12:50:04;;;;;;;3.30;2.60;;;13.80;99.90;;;;;;4841198;29;20042;-90
2021/05/19 12:52:37;;;;;;;5.50;2.40;;;13.80;99.90;;;;;;4841929;29;20045;-92
2021/05/19 12:55:05;;;;;;;3.17;2.28;;;13.90;99.90;;;;;;4857834;29;20061;-91
2021/05/19 12:57:33;;;;;;;3.03;2.35;;;13.90;99.90;;;;;;4858015;29;20046;-91
2021/05/19 13:00:07;;;;;;;2.00;1.80;;;13.90;99.90;;;;;;4824467;29;20054;-91
2021/05/19 13:02:38;;;;;;;3.33;1.85;;;14.20;99.90;;;;;;4841102;29;20049;-91
2021/05/19 13:05:31;;;;;;;4.70;1.75;;;14.40;99.90;;;;;;4840953;29;20140;-91
2021/05/19 13:07:56;;;;;;;2.90;2.22;;;14.50;99.90;;;;;;4840948;29;20037;-90